createdAt,value
2022-11-24T00:01:25.660Z,7.30
2022-11-24T00:04:04.521Z,7.27
2022-11-24T00:06:33.503Z,6.80
2022-11-24T00:09:01.410Z,6.57
2022-11-24T00:11:31.010Z,6.67
2022-11-24T00:13:59.167Z,7.03
2022-11-24T00:16:34.679Z,6.90
2022-11-24T00:19:04.458Z,6.73
2022-11-24T00:21:32.207Z,7.03
2022-11-24T00:23:59.859Z,7.40
2022-11-24T00:26:30.026Z,7.60
2022-11-24T00:28:59.170Z,6.90
2022-11-24T00:31:34.061Z,7.53
2022-11-24T00:34:07.388Z,7.43
2022-11-24T00:36:36.021Z,7.13
2022-11-24T00:39:08.100Z,6.47
2022-11-24T00:41:35.311Z,7.10
2022-11-24T00:44:03.003Z,7.60
2022-11-24T00:46:30.103Z,7.33
2022-11-24T00:48:58.051Z,7.27
2022-11-24T00:51:33.116Z,7.30
2022-11-24T00:54:01.445Z,7.37
2022-11-24T00:56:29.838Z,7.10
2022-11-24T00:58:57.373Z,7.60
2022-11-24T01:01:27.212Z,7.53
2022-11-24T01:03:57.604Z,8.23
2022-11-24T01:06:26.710Z,7.97
2022-11-24T01:08:54.665Z,7.90
2022-11-24T01:11:23.097Z,7.83
2022-11-24T01:13:57.603Z,7.53
2022-11-24T01:16:34.487Z,7.83
2022-11-24T01:19:03.883Z,7.37
2022-11-24T01:21:30.934Z,7.70
2022-11-24T01:23:58.239Z,7.73
2022-11-24T01:26:25.325Z,8.03
2022-11-24T01:28:57.215Z,7.97
2022-11-24T01:31:25.636Z,7.43
2022-11-24T01:33:53.203Z,7.73
2022-11-24T01:36:21.130Z,8.33
2022-11-24T01:38:48.384Z,7.00
2022-11-24T01:41:21.782Z,7.43
2022-11-24T01:43:49.813Z,8.30
2022-11-24T01:46:19.815Z,7.90
2022-11-24T01:48:58.292Z,7.47
2022-11-24T01:51:28.841Z,8.17
2022-11-24T01:54:24.438Z,7.97
2022-11-24T01:56:57.271Z,8.30
2022-11-24T01:59:25.965Z,8.10
2022-11-24T02:01:53.727Z,8.50
2022-11-24T02:04:27.969Z,8.50
2022-11-24T02:06:59.390Z,8.20
2022-11-24T02:09:59.652Z,8.87
2022-11-24T02:12:27.586Z,8.57
2022-11-24T02:15:15.625Z,8.20
2022-11-24T02:17:42.750Z,8.97
2022-11-24T02:20:11.085Z,8.70
2022-11-24T02:23:00.897Z,9.50
2022-11-24T02:25:46.266Z,8.27
2022-11-24T02:28:17.560Z,8.17
2022-11-24T02:30:45.055Z,9.20
2022-11-24T02:33:13.204Z,9.10
2022-11-24T02:35:40.423Z,10.13
2022-11-24T02:38:07.820Z,9.23
2022-11-24T02:40:35.362Z,8.60
2022-11-24T02:43:08.143Z,8.60
2022-11-24T02:45:35.191Z,8.47
2022-11-24T02:48:02.476Z,9.17
2022-11-24T02:50:29.619Z,7.90
2022-11-24T02:52:56.621Z,8.63
2022-11-24T02:55:23.870Z,8.47
2022-11-24T02:57:50.901Z,9.53
2022-11-24T03:00:18.625Z,8.53
2022-11-24T03:02:45.881Z,7.90
2022-11-24T03:05:13.668Z,8.03
2022-11-24T03:07:40.829Z,7.07
2022-11-24T03:10:08.296Z,8.33
2022-11-24T03:12:35.472Z,8.33
2022-11-24T03:15:03.424Z,8.07
2022-11-24T03:17:31.317Z,8.30
2022-11-24T03:20:04.316Z,7.70
2022-11-24T03:22:32.195Z,6.90
2022-11-24T03:24:59.433Z,7.53
2022-11-24T03:27:26.856Z,7.47
2022-11-24T03:29:53.955Z,7.30
2022-11-24T03:32:21.070Z,6.90
2022-11-24T03:34:48.136Z,7.13
2022-11-24T03:37:15.921Z,7.40
2022-11-24T03:39:43.025Z,7.27
2022-11-24T03:42:10.251Z,7.37
2022-11-24T03:44:37.430Z,6.63
2022-11-24T03:47:04.571Z,7.73
2022-11-24T03:49:31.894Z,6.70
2022-11-24T03:52:02.681Z,6.43
2022-11-24T03:54:34.038Z,8.17
2022-11-24T03:57:01.244Z,7.17
2022-11-24T03:59:28.327Z,7.10
2022-11-24T04:01:55.423Z,7.13
2022-11-24T04:04:22.530Z,7.27
2022-11-24T04:06:49.560Z,6.23
2022-11-24T04:09:16.806Z,6.87
2022-11-24T04:12:02.298Z,7.40
2022-11-24T04:14:29.317Z,6.40
2022-11-24T04:16:56.268Z,6.33
2022-11-24T04:19:23.270Z,6.50
2022-11-24T04:21:50.253Z,7.00
2022-11-24T04:24:17.228Z,6.67
2022-11-24T04:26:44.150Z,6.63
2022-11-24T04:29:11.357Z,7.87
2022-11-24T04:31:38.360Z,8.17
2022-11-24T04:34:05.349Z,8.03
2022-11-24T04:36:32.389Z,7.70
2022-11-24T04:39:20.160Z,8.10
2022-11-24T04:41:47.730Z,8.23
2022-11-24T04:44:14.794Z,8.60
2022-11-24T04:46:41.724Z,7.90
2022-11-24T04:49:11.822Z,7.90
2022-11-24T04:51:39.878Z,7.27
2022-11-24T04:54:09.844Z,7.57
2022-11-24T04:56:36.829Z,7.17
2022-11-24T04:59:07.984Z,7.97
2022-11-24T05:01:35.891Z,7.17
2022-11-24T05:04:02.953Z,6.87
2022-11-24T05:06:30.198Z,6.63
2022-11-24T05:08:57.099Z,7.57
2022-11-24T05:11:24.104Z,7.03
2022-11-24T05:13:53.541Z,6.70
2022-11-24T05:16:20.556Z,6.97
2022-11-24T05:18:47.571Z,7.13
2022-11-24T05:21:14.945Z,6.70
2022-11-24T05:23:42.098Z,7.50
2022-11-24T05:26:09.264Z,7.27
2022-11-24T05:28:36.263Z,7.70
2022-11-24T05:31:04.485Z,8.00
2022-11-24T05:33:33.626Z,6.93
2022-11-24T05:36:05.524Z,7.70
2022-11-24T05:38:33.957Z,8.60
2022-11-24T05:41:05.367Z,8.53
2022-11-24T05:43:32.521Z,9.07
2022-11-24T05:46:00.732Z,8.20
2022-11-24T05:48:28.184Z,8.20
2022-11-24T05:50:56.311Z,8.50
2022-11-24T05:53:23.910Z,9.20
2022-11-24T05:55:50.935Z,8.67
2022-11-24T05:58:18.056Z,8.90
2022-11-24T06:00:45.051Z,8.73
2022-11-24T06:03:12.673Z,8.30
2022-11-24T06:05:40.398Z,7.77
2022-11-24T06:08:07.333Z,7.77
2022-11-24T06:10:34.278Z,6.93
2022-11-24T06:13:06.255Z,8.17
2022-11-24T06:15:34.054Z,8.10
2022-11-24T06:18:00.983Z,6.83
2022-11-24T06:20:32.457Z,8.47
2022-11-24T06:23:01.228Z,8.00
2022-11-24T06:25:29.359Z,7.63
2022-11-24T06:27:56.422Z,7.57
2022-11-24T06:30:23.453Z,7.63
2022-11-24T06:32:55.074Z,7.40
2022-11-24T06:35:22.147Z,10.17
2022-11-24T06:37:49.118Z,9.10
2022-11-24T06:40:16.445Z,8.87
2022-11-24T06:42:43.339Z,9.17
2022-11-24T06:45:10.539Z,8.63
2022-11-24T06:47:37.633Z,8.63
2022-11-24T06:50:05.057Z,9.70
2022-11-24T06:52:32.684Z,9.43
2022-11-24T06:54:59.762Z,9.37
2022-11-24T06:57:29.570Z,9.37
2022-11-24T06:59:57.407Z,9.93
2022-11-24T07:02:24.559Z,8.80
2022-11-24T07:04:51.536Z,8.87
2022-11-24T07:07:18.588Z,8.80
2022-11-24T07:09:45.626Z,8.23
2022-11-24T07:12:12.559Z,8.37
2022-11-24T07:14:39.526Z,8.87
2022-11-24T07:17:07.435Z,8.33
2022-11-24T07:19:34.502Z,8.67
2022-11-24T07:22:01.396Z,8.50
2022-11-24T07:24:28.281Z,8.83
2022-11-24T07:26:55.218Z,8.03
2022-11-24T07:29:22.160Z,8.33
2022-11-24T07:31:49.090Z,8.10
2022-11-24T07:34:16.035Z,7.93
2022-11-24T07:36:43.074Z,8.30
2022-11-24T07:39:10.066Z,7.83
2022-11-24T07:41:37.097Z,8.23
2022-11-24T07:44:04.299Z,8.43
2022-11-24T07:46:31.240Z,8.97
2022-11-24T07:48:58.270Z,9.03
2022-11-24T07:51:25.196Z,8.60
2022-11-24T07:53:52.170Z,9.00
2022-11-24T07:56:19.081Z,9.13
2022-11-24T07:58:51.381Z,9.67
2022-11-24T08:01:20.298Z,10.23
2022-11-24T08:03:47.900Z,9.90
2022-11-24T08:06:38.504Z,9.77
2022-11-24T08:09:02.108Z,8.00
2022-11-24T08:11:31.730Z,8.67
2022-11-24T08:13:58.863Z,8.97
2022-11-24T08:16:25.781Z,8.57
2022-11-24T08:18:55.091Z,9.43
2022-11-24T08:21:26.014Z,9.03
2022-11-24T08:23:57.171Z,9.77
2022-11-24T08:26:25.440Z,9.37
2022-11-24T08:28:58.480Z,9.93
2022-11-24T08:31:32.863Z,8.97
2022-11-24T08:34:00.672Z,10.07
2022-11-24T08:36:27.636Z,10.30
2022-11-24T08:38:56.771Z,9.63
2022-11-24T08:41:24.535Z,9.37
2022-11-24T08:43:51.723Z,8.70
2022-11-24T08:46:19.458Z,9.47
2022-11-24T08:48:51.134Z,9.67
2022-11-24T08:51:23.306Z,9.23
2022-11-24T08:53:58.502Z,9.57
2022-11-24T08:56:30.359Z,9.47
2022-11-24T08:58:58.015Z,9.03
2022-11-24T09:01:26.328Z,9.47
2022-11-24T09:03:53.477Z,9.60
2022-11-24T09:06:23.861Z,9.73
2022-11-24T09:08:52.195Z,9.90
2022-11-24T09:11:19.769Z,10.13
2022-11-24T09:13:46.874Z,9.77
2022-11-24T09:16:17.346Z,10.07
2022-11-24T09:18:45.222Z,10.40
2022-11-24T09:21:20.166Z,10.33
2022-11-24T09:23:49.269Z,9.73
2022-11-24T09:26:25.991Z,11.63
2022-11-24T09:28:54.649Z,10.80
2022-11-24T09:31:24.234Z,10.33
2022-11-24T09:33:52.494Z,10.80
2022-11-24T09:36:20.460Z,10.30
2022-11-24T09:38:48.302Z,8.90
2022-11-24T09:41:15.249Z,10.97
2022-11-24T09:44:06.972Z,11.00
2022-11-24T09:46:42.902Z,10.13
2022-11-24T09:49:41.976Z,10.20
2022-11-24T09:52:14.574Z,9.30
2022-11-24T09:54:54.315Z,10.57
2022-11-24T09:57:24.616Z,10.33
2022-11-24T09:59:51.594Z,9.90
2022-11-24T10:02:18.518Z,10.10
2022-11-24T10:04:47.202Z,9.83
2022-11-24T10:07:30.813Z,11.00
2022-11-24T10:10:09.621Z,10.17
2022-11-24T10:13:15.278Z,10.40
2022-11-24T10:15:54.966Z,11.00
2022-11-24T10:18:40.257Z,11.30
2022-11-24T10:21:25.509Z,11.97
2022-11-24T10:23:55.089Z,12.17
2022-11-24T10:26:38.670Z,11.53
2022-11-24T10:29:30.700Z,11.87
2022-11-24T10:31:58.138Z,11.93
2022-11-24T10:34:37.714Z,12.30
2022-11-24T10:37:24.913Z,11.90
2022-11-24T10:41:00.463Z,12.13
2022-11-24T10:43:28.677Z,11.70
2022-11-24T10:46:10.813Z,11.80
2022-11-24T10:48:44.066Z,13.77
2022-11-24T10:51:37.423Z,11.87
2022-11-24T10:54:24.125Z,11.63
2022-11-24T10:56:52.978Z,12.77
2022-11-24T10:59:25.678Z,12.00
2022-11-24T11:01:53.402Z,12.53
2022-11-24T11:04:40.626Z,12.33
2022-11-24T11:07:18.859Z,11.00
2022-11-24T11:09:47.647Z,11.90
2022-11-24T11:12:45.769Z,11.90
2022-11-24T11:15:22.013Z,10.47
2022-11-24T11:17:50.580Z,9.55
2022-11-24T11:20:32.822Z,9.67
2022-11-24T11:23:04.941Z,9.37
2022-11-24T11:25:36.333Z,9.47
2022-11-24T11:28:29.184Z,10.87
2022-11-24T11:31:20.571Z,9.40
2022-11-24T11:34:07.299Z,10.23
2022-11-24T11:36:45.177Z,9.40
2022-11-24T11:39:33.154Z,9.63
2022-11-24T11:42:31.434Z,10.33
2022-11-24T11:45:11.014Z,9.30
2022-11-24T11:47:46.323Z,9.32
2022-11-24T11:50:16.429Z,8.73
2022-11-24T11:53:18.474Z,9.23
2022-11-24T11:56:16.629Z,9.27
2022-11-24T11:59:20.389Z,9.60
2022-11-24T12:02:09.065Z,9.57
2022-11-24T12:04:39.054Z,9.57
2022-11-24T12:07:05.968Z,10.77
2022-11-24T12:09:51.505Z,9.40
2022-11-24T12:12:55.562Z,9.60
2022-11-24T12:15:41.077Z,9.43
2022-11-24T12:18:55.743Z,9.77
2022-11-24T12:21:27.776Z,10.10
2022-11-24T12:24:09.984Z,10.37
2022-11-24T12:26:49.359Z,11.17
2022-11-24T12:29:35.109Z,10.00
2022-11-24T12:32:26.943Z,11.13
2022-11-24T12:35:06.313Z,9.60
2022-11-24T12:37:48.566Z,10.47
2022-11-24T12:40:48.375Z,10.20
2022-11-24T12:43:44.904Z,10.30
2022-11-24T12:46:48.646Z,10.93
2022-11-24T12:49:25.763Z,11.70
2022-11-24T12:51:59.906Z,11.87
2022-11-24T12:54:34.018Z,11.70
2022-11-24T12:57:09.843Z,13.43
2022-11-24T12:59:51.818Z,13.23
2022-11-24T13:02:55.255Z,11.77
2022-11-24T13:05:32.941Z,11.43
2022-11-24T13:08:03.275Z,11.57
2022-11-24T13:10:56.198Z,11.53
2022-11-24T13:13:29.379Z,12.37
2022-11-24T13:16:20.669Z,11.00
2022-11-24T13:18:43.343Z,10.77
2022-11-24T13:21:47.148Z,10.60
2022-11-24T13:24:18.030Z,9.57
2022-11-24T13:26:49.118Z,10.80
2022-11-24T13:29:28.134Z,10.77
2022-11-24T13:32:17.752Z,10.60
2022-11-24T13:34:48.513Z,11.30
2022-11-24T13:37:34.449Z,10.67
2022-11-24T13:40:23.034Z,11.65
2022-11-24T13:45:41.836Z,9.97
2022-11-24T13:48:21.953Z,10.10
2022-11-24T13:50:58.649Z,10.50
2022-11-24T13:53:35.889Z,10.95
2022-11-24T13:56:02.887Z,10.27
2022-11-24T13:58:43.974Z,10.83
2022-11-24T14:01:20.123Z,10.87
2022-11-24T14:04:07.036Z,11.18
2022-11-24T14:06:42.688Z,10.77
2022-11-24T14:09:21.874Z,10.77
2022-11-24T14:12:26.866Z,11.10
2022-11-24T14:15:12.994Z,11.60
2022-11-24T14:17:40.010Z,11.07
2022-11-24T14:20:24.885Z,11.17
2022-11-24T14:22:52.551Z,9.97
2022-11-24T14:25:31.241Z,11.30
2022-11-24T14:27:59.739Z,11.43
2022-11-24T14:30:26.954Z,10.77
2022-11-24T14:33:04.080Z,11.90
2022-11-24T14:35:36.182Z,12.03
2022-11-24T14:38:06.031Z,11.03
2022-11-24T14:40:54.117Z,11.30
2022-11-24T14:43:23.780Z,11.00
2022-11-24T14:45:52.126Z,10.63
2022-11-24T14:48:24.751Z,11.37
2022-11-24T14:50:52.102Z,11.53
2022-11-24T14:53:26.181Z,11.40
2022-11-24T14:56:30.647Z,10.67
2022-11-24T14:58:58.896Z,10.97
2022-11-24T15:01:35.066Z,11.63
2022-11-24T15:04:46.734Z,11.45
2022-11-24T15:07:24.835Z,10.27
2022-11-24T15:10:03.647Z,10.77
2022-11-24T15:12:37.365Z,11.73
2022-11-24T15:15:06.057Z,10.70
2022-11-24T15:17:33.304Z,11.10
2022-11-24T15:20:07.842Z,11.63
2022-11-24T15:22:40.854Z,10.23
2022-11-24T15:25:29.747Z,9.80
2022-11-24T15:27:57.246Z,7.83
2022-11-24T15:30:24.551Z,9.77
2022-11-24T15:32:55.367Z,9.27
2022-11-24T15:35:24.202Z,9.57
2022-11-24T15:37:52.099Z,9.77
2022-11-24T15:40:19.399Z,9.13
2022-11-24T15:42:51.552Z,9.13
2022-11-24T15:45:19.948Z,8.77
2022-11-24T15:47:46.934Z,9.40
2022-11-24T15:50:14.515Z,8.23
2022-11-24T15:52:42.509Z,9.53
2022-11-24T15:55:18.480Z,8.80
2022-11-24T15:57:45.659Z,8.15
2022-11-24T16:00:17.652Z,8.83
2022-11-24T16:02:44.775Z,9.57
2022-11-24T16:05:12.902Z,9.50
2022-11-24T16:07:40.283Z,9.00
2022-11-24T16:10:14.899Z,9.20
2022-11-24T16:12:41.838Z,9.33
2022-11-24T16:15:09.348Z,9.87
2022-11-24T16:17:36.367Z,8.43
2022-11-24T16:20:03.861Z,9.00
2022-11-24T16:22:30.863Z,8.57
2022-11-24T16:24:57.792Z,8.17
2022-11-24T16:27:24.742Z,9.00
2022-11-24T16:29:52.189Z,7.80
2022-11-24T16:32:19.163Z,9.10
2022-11-24T16:34:46.072Z,8.43
2022-11-24T16:37:12.939Z,9.77
2022-11-24T16:39:39.786Z,9.57
2022-11-24T16:42:06.732Z,9.80
2022-11-24T16:44:36.705Z,10.57
2022-11-24T16:47:03.911Z,10.47
2022-11-24T16:49:30.856Z,10.13
2022-11-24T16:51:58.090Z,9.43
2022-11-24T16:54:25.855Z,9.90
2022-11-24T16:56:52.791Z,9.67
2022-11-24T16:59:19.752Z,10.33
2022-11-24T17:01:50.589Z,10.13
2022-11-24T17:04:18.050Z,9.47
2022-11-24T17:06:45.048Z,9.57
2022-11-24T17:09:12.344Z,10.60
2022-11-24T17:11:39.263Z,9.93
2022-11-24T17:14:06.129Z,9.70
2022-11-24T17:16:33.342Z,9.23
2022-11-24T17:19:00.354Z,9.63
2022-11-24T17:21:27.977Z,9.40
2022-11-24T17:23:56.334Z,10.73
2022-11-24T17:26:24.077Z,9.23
2022-11-24T17:28:51.074Z,8.87
2022-11-24T17:31:21.826Z,9.53
2022-11-24T17:33:50.323Z,8.87
2022-11-24T17:36:17.574Z,9.57
2022-11-24T17:38:44.722Z,8.47
2022-11-24T17:41:11.866Z,8.90
2022-11-24T17:43:38.744Z,8.97
2022-11-24T17:46:06.014Z,7.80
2022-11-24T17:48:34.752Z,8.97
2022-11-24T17:51:13.551Z,8.70
2022-11-24T17:53:42.491Z,8.23
2022-11-24T17:56:15.844Z,7.83
2022-11-24T17:58:43.624Z,8.33
2022-11-24T18:01:12.511Z,8.00
2022-11-24T18:03:40.577Z,8.30
2022-11-24T18:06:09.948Z,8.60
2022-11-24T18:08:38.460Z,9.37
2022-11-24T18:11:13.802Z,7.57
2022-11-24T18:13:56.612Z,7.53
2022-11-24T18:16:28.339Z,8.43
2022-11-24T18:19:09.867Z,8.53
2022-11-24T18:21:39.516Z,8.53
2022-11-24T18:24:08.051Z,8.60
2022-11-24T18:26:35.068Z,8.40
2022-11-24T18:29:02.214Z,8.37
2022-11-24T18:31:31.299Z,7.93
2022-11-24T18:33:59.502Z,9.27
2022-11-24T18:36:30.354Z,8.20
2022-11-24T18:39:00.935Z,8.43
2022-11-24T18:41:27.920Z,8.47
2022-11-24T18:43:54.760Z,9.37
2022-11-24T18:46:21.835Z,8.30
2022-11-24T18:48:48.747Z,8.03
2022-11-24T18:51:15.842Z,8.47
2022-11-24T18:53:44.234Z,8.57
2022-11-24T18:56:17.912Z,8.50
2022-11-24T18:58:45.191Z,8.03
2022-11-24T19:01:14.561Z,8.07
2022-11-24T19:03:48.928Z,7.53
2022-11-24T19:06:27.050Z,6.77
2022-11-24T19:08:55.018Z,7.73
2022-11-24T19:11:34.026Z,7.43
2022-11-24T19:14:02.602Z,7.63
2022-11-24T19:16:30.082Z,6.93
2022-11-24T19:19:00.265Z,7.20
2022-11-24T19:21:29.966Z,7.47
2022-11-24T19:24:02.901Z,7.53
2022-11-24T19:26:31.874Z,7.43
2022-11-24T19:28:58.764Z,7.37
2022-11-24T19:31:25.885Z,6.73
2022-11-24T19:33:54.742Z,7.20
2022-11-24T19:36:23.190Z,7.53
2022-11-24T19:38:52.637Z,7.23
2022-11-24T19:41:22.498Z,7.03
2022-11-24T19:43:49.851Z,7.03
2022-11-24T19:46:18.666Z,7.63
2022-11-24T19:48:50.041Z,7.27
2022-11-24T19:51:19.469Z,7.60
2022-11-24T19:53:46.942Z,7.53
2022-11-24T19:56:26.086Z,7.23
2022-11-24T19:58:54.494Z,6.40
2022-11-24T20:01:29.285Z,7.60
2022-11-24T20:04:00.963Z,6.40
2022-11-24T20:06:30.818Z,6.47
2022-11-24T20:08:59.403Z,6.80
2022-11-24T20:11:27.528Z,6.63
2022-11-24T20:13:55.175Z,6.50
2022-11-24T20:16:28.218Z,6.27
2022-11-24T20:19:05.812Z,6.00
2022-11-24T20:21:33.986Z,5.70
2022-11-24T20:24:13.491Z,6.27
2022-11-24T20:26:44.017Z,6.03
2022-11-24T20:29:13.183Z,5.13
2022-11-24T20:31:43.112Z,7.07
2022-11-24T20:34:11.403Z,5.77
2022-11-24T20:36:40.554Z,6.03
2022-11-24T20:39:12.414Z,6.03
2022-11-24T20:41:40.306Z,6.60
2022-11-24T20:44:10.627Z,6.27
2022-11-24T20:46:39.910Z,5.70
2022-11-24T20:49:08.963Z,5.70
2022-11-24T20:51:39.150Z,5.47
2022-11-24T20:54:08.765Z,5.77
2022-11-24T20:56:39.846Z,6.33
2022-11-24T20:59:08.680Z,6.00
2022-11-24T21:01:38.814Z,6.07
2022-11-24T21:04:12.539Z,5.47
2022-11-24T21:06:40.105Z,5.40
2022-11-24T21:09:08.570Z,5.30
2022-11-24T21:11:37.186Z,5.83
2022-11-24T21:14:04.360Z,6.10
2022-11-24T21:16:39.438Z,5.20
2022-11-24T21:19:09.641Z,6.37
2022-11-24T21:21:37.793Z,5.67
2022-11-24T21:24:07.418Z,6.00
2022-11-24T21:26:38.407Z,5.97
2022-11-24T21:29:06.764Z,5.63
2022-11-24T21:31:38.536Z,5.80
2022-11-24T21:34:06.844Z,6.53
2022-11-24T21:36:40.144Z,5.53
2022-11-24T21:39:07.335Z,5.33
2022-11-24T21:41:34.364Z,6.50
2022-11-24T21:44:01.689Z,5.63
2022-11-24T21:46:39.021Z,5.83
2022-11-24T21:49:08.016Z,5.67
2022-11-24T21:51:35.001Z,5.73
2022-11-24T21:54:01.928Z,5.90
2022-11-24T21:56:28.853Z,6.53
2022-11-24T21:58:57.533Z,5.73
2022-11-24T22:01:27.408Z,6.57
2022-11-24T22:03:55.421Z,6.53
2022-11-24T22:06:22.838Z,5.57
2022-11-24T22:08:49.971Z,6.10
2022-11-24T22:11:19.733Z,5.93
2022-11-24T22:13:47.038Z,5.70
2022-11-24T22:16:17.732Z,5.73
2022-11-24T22:18:45.815Z,5.50
2022-11-24T22:21:15.199Z,5.40
2022-11-24T22:23:43.063Z,5.30
2022-11-24T22:26:18.332Z,5.53
2022-11-24T22:28:46.148Z,5.33
2022-11-24T22:31:19.120Z,6.07
2022-11-24T22:33:46.533Z,5.60
2022-11-24T22:36:14.673Z,5.87
2022-11-24T22:38:42.007Z,5.73
2022-11-24T22:41:13.119Z,6.30
2022-11-24T22:43:41.718Z,5.30
2022-11-24T22:46:17.047Z,5.50
2022-11-24T22:48:45.303Z,5.80
2022-11-24T22:51:14.882Z,5.50
2022-11-24T22:53:46.245Z,5.97
2022-11-24T22:56:13.240Z,5.33
2022-11-24T22:58:40.460Z,5.20
2022-11-24T23:01:12.775Z,5.63
2022-11-24T23:03:40.906Z,6.23
2022-11-24T23:06:12.313Z,5.30
2022-11-24T23:08:40.334Z,5.80
2022-11-24T23:11:17.639Z,5.30
2022-11-24T23:13:45.159Z,5.50
2022-11-24T23:16:17.329Z,5.60
2022-11-24T23:18:49.821Z,4.93
2022-11-24T23:21:22.024Z,5.40
2022-11-24T23:23:50.068Z,5.90
2022-11-24T23:26:23.208Z,5.43
2022-11-24T23:28:50.792Z,4.63
2022-11-24T23:31:21.514Z,4.83
2022-11-24T23:33:48.503Z,6.13
2022-11-24T23:36:20.385Z,5.03
2022-11-24T23:38:48.481Z,5.07
2022-11-24T23:41:19.085Z,5.20
2022-11-24T23:43:46.132Z,5.90
2022-11-24T23:46:15.766Z,4.80
2022-11-24T23:48:43.456Z,5.60
2022-11-24T23:51:13.438Z,5.00
2022-11-24T23:53:40.858Z,5.20
2022-11-24T23:56:09.243Z,4.43
2022-11-24T23:58:36.152Z,5.10
